sensor_id;sensor_type;location;lat;lon;timestamp;P1;durP1;ratioP1;P2;durP2;ratioP2
65150;SDS011;51918;51.856;0.150;2023-05-07T00:03:45;409.95;;;386.00;;
65150;SDS011;51918;51.856;0.150;2023-05-07T00:08:45;1999.90;;;999.90;;
65150;SDS011;51918;51.856;0.150;2023-05-07T00:13:47;436.73;;;413.00;;
65150;SDS011;51918;51.856;0.150;2023-05-07T00:18:49;1580.20;;;824.63;;
65150;SDS011;51918;51.856;0.150;2023-05-07T00:23:51;299.45;;;280.30;;
65150;SDS011;51918;51.856;0.150;2023-05-07T00:28:52;1125.20;;;615.60;;
65150;SDS011;51918;51.856;0.150;2023-05-07T00:33:54;378.40;;;356.48;;
65150;SDS011;51918;51.856;0.150;2023-05-07T00:38:56;1199.95;;;688.38;;
65150;SDS011;51918;51.856;0.150;2023-05-07T00:43:59;408.65;;;387.08;;
65150;SDS011;51918;51.856;0.150;2023-05-07T00:49:01;1999.90;;;999.90;;
65150;SDS011;51918;51.856;0.150;2023-05-07T00:54:03;465.10;;;442.98;;
65150;SDS011;51918;51.856;0.150;2023-05-07T00:59:04;497.45;;;470.23;;
65150;SDS011;51918;51.856;0.150;2023-05-07T01:04:07;445.25;;;420.02;;
65150;SDS011;51918;51.856;0.150;2023-05-07T01:09:07;409.65;;;389.05;;
65150;SDS011;51918;51.856;0.150;2023-05-07T01:14:08;465.02;;;442.30;;
65150;SDS011;51918;51.856;0.150;2023-05-07T01:19:10;333.20;;;317.63;;
65150;SDS011;51918;51.856;0.150;2023-05-07T01:24:13;361.60;;;345.13;;
65150;SDS011;51918;51.856;0.150;2023-05-07T01:29:14;368.35;;;351.35;;
65150;SDS011;51918;51.856;0.150;2023-05-07T01:34:15;358.70;;;342.38;;
65150;SDS011;51918;51.856;0.150;2023-05-07T01:39:21;413.23;;;394.33;;
65150;SDS011;51918;51.856;0.150;2023-05-07T01:44:24;347.30;;;331.65;;
65150;SDS011;51918;51.856;0.150;2023-05-07T01:49:32;313.15;;;295.35;;
65150;SDS011;51918;51.856;0.150;2023-05-07T01:54:34;453.00;;;429.83;;
65150;SDS011;51918;51.856;0.150;2023-05-07T01:59:37;355.00;;;331.77;;
65150;SDS011;51918;51.856;0.150;2023-05-07T02:04:38;1999.90;;;999.90;;
65150;SDS011;51918;51.856;0.150;2023-05-07T02:09:42;1168.30;;;657.97;;
65150;SDS011;51918;51.856;0.150;2023-05-07T02:14:43;1999.90;;;999.90;;
65150;SDS011;51918;51.856;0.150;2023-05-07T02:19:43;448.83;;;420.98;;
65150;SDS011;51918;51.856;0.150;2023-05-07T02:24:45;481.20;;;455.27;;
65150;SDS011;51918;51.856;0.150;2023-05-07T02:35:23;347.15;;;330.15;;
65150;SDS011;51918;51.856;0.150;2023-05-07T02:40:25;463.55;;;434.95;;
65150;SDS011;51918;51.856;0.150;2023-05-07T02:45:26;403.80;;;383.20;;
65150;SDS011;51918;51.856;0.150;2023-05-07T02:50:26;404.80;;;382.27;;
65150;SDS011;51918;51.856;0.150;2023-05-07T02:55:28;353.55;;;334.80;;
65150;SDS011;51918;51.856;0.150;2023-05-07T03:00:29;360.13;;;342.33;;
65150;SDS011;51918;51.856;0.150;2023-05-07T03:05:30;335.42;;;318.42;;
65150;SDS011;51918;51.856;0.150;2023-05-07T03:10:31;308.20;;;286.23;;
65150;SDS011;51918;51.856;0.150;2023-05-07T03:15:32;269.25;;;255.77;;
65150;SDS011;51918;51.856;0.150;2023-05-07T03:20:33;246.00;;;234.70;;
65150;SDS011;51918;51.856;0.150;2023-05-07T03:25:35;341.60;;;323.65;;
65150;SDS011;51918;51.856;0.150;2023-05-07T03:30:37;313.58;;;298.00;;
65150;SDS011;51918;51.856;0.150;2023-05-07T03:35:37;577.20;;;541.60;;
65150;SDS011;51918;51.856;0.150;2023-05-07T03:40:39;444.10;;;417.88;;
65150;SDS011;51918;51.856;0.150;2023-05-07T03:45:40;384.63;;;364.15;;
65150;SDS011;51918;51.856;0.150;2023-05-07T03:50:41;317.58;;;302.30;;
65150;SDS011;51918;51.856;0.150;2023-05-07T03:55:43;317.05;;;299.33;;
65150;SDS011;51918;51.856;0.150;2023-05-07T04:00:43;273.15;;;259.25;;
65150;SDS011;51918;51.856;0.150;2023-05-07T04:05:44;255.52;;;243.40;;
65150;SDS011;51918;51.856;0.150;2023-05-07T04:10:46;276.75;;;263.23;;
65150;SDS011;51918;51.856;0.150;2023-05-07T04:15:48;280.63;;;266.77;;
65150;SDS011;51918;51.856;0.150;2023-05-07T04:20:49;1182.53;;;671.05;;
65150;SDS011;51918;51.856;0.150;2023-05-07T04:25:51;269.88;;;256.48;;
65150;SDS011;51918;51.856;0.150;2023-05-07T04:30:53;403.27;;;375.55;;
65150;SDS011;51918;51.856;0.150;2023-05-07T04:35:53;299.45;;;284.17;;
65150;SDS011;51918;51.856;0.150;2023-05-07T04:40:56;291.02;;;277.23;;
65150;SDS011;51918;51.856;0.150;2023-05-07T04:45:56;346.42;;;329.27;;
65150;SDS011;51918;51.856;0.150;2023-05-07T04:50:57;241.57;;;230.20;;
65150;SDS011;51918;51.856;0.150;2023-05-07T04:55:59;273.88;;;259.98;;
65150;SDS011;51918;51.856;0.150;2023-05-07T05:00:59;329.38;;;312.20;;
65150;SDS011;51918;51.856;0.150;2023-05-07T05:06:00;317.38;;;301.60;;
65150;SDS011;51918;51.856;0.150;2023-05-07T05:11:02;371.27;;;351.83;;
65150;SDS011;51918;51.856;0.150;2023-05-07T05:16:03;366.08;;;347.23;;
65150;SDS011;51918;51.856;0.150;2023-05-07T05:21:04;208.35;;;197.05;;
65150;SDS011;51918;51.856;0.150;2023-05-07T05:26:06;403.27;;;378.67;;
65150;SDS011;51918;51.856;0.150;2023-05-07T05:31:06;273.05;;;258.48;;
65150;SDS011;51918;51.856;0.150;2023-05-07T05:36:09;424.67;;;400.45;;
65150;SDS011;51918;51.856;0.150;2023-05-07T05:41:11;380.95;;;356.58;;
65150;SDS011;51918;51.856;0.150;2023-05-07T05:46:12;370.13;;;349.50;;
65150;SDS011;51918;51.856;0.150;2023-05-07T05:51:15;422.85;;;399.77;;
65150;SDS011;51918;51.856;0.150;2023-05-07T05:56:17;398.88;;;377.00;;
65150;SDS011;51918;51.856;0.150;2023-05-07T06:01:18;430.83;;;404.52;;
65150;SDS011;51918;51.856;0.150;2023-05-07T06:06:22;521.50;;;489.15;;
65150;SDS011;51918;51.856;0.150;2023-05-07T06:11:24;424.95;;;398.17;;
65150;SDS011;51918;51.856;0.150;2023-05-07T06:16:25;276.38;;;260.98;;
65150;SDS011;51918;51.856;0.150;2023-05-07T06:21:38;211.35;;;200.60;;
65150;SDS011;51918;51.856;0.150;2023-05-07T06:26:40;258.45;;;244.65;;
65150;SDS011;51918;51.856;0.150;2023-05-07T06:31:41;318.70;;;301.55;;
65150;SDS011;51918;51.856;0.150;2023-05-07T06:36:42;297.35;;;281.52;;
65150;SDS011;51918;51.856;0.150;2023-05-07T06:41:44;489.88;;;459.77;;
65150;SDS011;51918;51.856;0.150;2023-05-07T06:46:45;348.35;;;324.40;;
65150;SDS011;51918;51.856;0.150;2023-05-07T06:51:45;400.92;;;367.67;;
65150;SDS011;51918;51.856;0.150;2023-05-07T06:56:48;277.75;;;262.08;;
65150;SDS011;51918;51.856;0.150;2023-05-07T07:01:48;371.13;;;348.40;;
65150;SDS011;51918;51.856;0.150;2023-05-07T07:06:49;195.73;;;186.18;;
65150;SDS011;51918;51.856;0.150;2023-05-07T07:11:53;209.93;;;199.65;;
65150;SDS011;51918;51.856;0.150;2023-05-07T07:16:53;326.08;;;306.65;;
65150;SDS011;51918;51.856;0.150;2023-05-07T07:21:54;357.95;;;337.50;;
65150;SDS011;51918;51.856;0.150;2023-05-07T07:26:56;217.68;;;207.60;;
65150;SDS011;51918;51.856;0.150;2023-05-07T07:31:57;428.80;;;398.13;;
65150;SDS011;51918;51.856;0.150;2023-05-07T07:36:57;236.05;;;223.88;;
65150;SDS011;51918;51.856;0.150;2023-05-07T07:41:59;326.55;;;308.00;;
65150;SDS011;51918;51.856;0.150;2023-05-07T07:47:00;308.70;;;291.25;;
65150;SDS011;51918;51.856;0.150;2023-05-07T07:52:01;218.15;;;207.98;;
65150;SDS011;51918;51.856;0.150;2023-05-07T07:57:03;240.00;;;229.07;;
65150;SDS011;51918;51.856;0.150;2023-05-07T08:02:06;212.27;;;200.80;;
65150;SDS011;51918;51.856;0.150;2023-05-07T08:07:08;199.57;;;190.75;;
65150;SDS011;51918;51.856;0.150;2023-05-07T08:12:11;275.33;;;260.73;;
65150;SDS011;51918;51.856;0.150;2023-05-07T08:17:11;270.42;;;257.63;;
65150;SDS011;51918;51.856;0.150;2023-05-07T08:22:12;263.95;;;252.65;;
65150;SDS011;51918;51.856;0.150;2023-05-07T08:27:14;250.43;;;239.32;;
65150;SDS011;51918;51.856;0.150;2023-05-07T08:32:17;241.73;;;230.98;;
65150;SDS011;51918;51.856;0.150;2023-05-07T08:37:18;227.00;;;216.63;;
65150;SDS011;51918;51.856;0.150;2023-05-07T08:42:20;235.65;;;223.98;;
65150;SDS011;51918;51.856;0.150;2023-05-07T08:47:27;258.65;;;247.07;;
65150;SDS011;51918;51.856;0.150;2023-05-07T08:52:32;255.35;;;243.45;;
65150;SDS011;51918;51.856;0.150;2023-05-07T08:57:34;272.27;;;258.80;;
65150;SDS011;51918;51.856;0.150;2023-05-07T09:02:35;326.75;;;310.30;;
65150;SDS011;51918;51.856;0.150;2023-05-07T09:07:43;268.45;;;256.35;;
65150;SDS011;51918;51.856;0.150;2023-05-07T09:12:45;298.67;;;284.42;;
65150;SDS011;51918;51.856;0.150;2023-05-07T09:17:46;389.17;;;368.38;;
65150;SDS011;51918;51.856;0.150;2023-05-07T09:22:47;286.92;;;273.90;;
65150;SDS011;51918;51.856;0.150;2023-05-07T09:27:50;317.08;;;302.83;;
65150;SDS011;51918;51.856;0.150;2023-05-07T09:32:51;280.17;;;266.63;;
65150;SDS011;51918;51.856;0.150;2023-05-07T09:37:52;262.40;;;249.82;;
65150;SDS011;51918;51.856;0.150;2023-05-07T09:47:57;244.07;;;232.95;;
65150;SDS011;51918;51.856;0.150;2023-05-07T09:52:58;242.38;;;230.35;;
65150;SDS011;51918;51.856;0.150;2023-05-07T09:58:01;236.13;;;222.45;;
65150;SDS011;51918;51.856;0.150;2023-05-07T10:03:02;341.70;;;326.05;;
65150;SDS011;51918;51.856;0.150;2023-05-07T10:08:04;291.80;;;277.77;;
65150;SDS011;51918;51.856;0.150;2023-05-07T10:13:06;332.52;;;317.75;;
65150;SDS011;51918;51.856;0.150;2023-05-07T10:18:08;352.70;;;337.08;;
65150;SDS011;51918;51.856;0.150;2023-05-07T10:23:09;305.45;;;290.52;;
65150;SDS011;51918;51.856;0.150;2023-05-07T10:28:16;325.60;;;309.85;;
65150;SDS011;51918;51.856;0.150;2023-05-07T10:33:19;294.30;;;279.88;;
65150;SDS011;51918;51.856;0.150;2023-05-07T10:38:26;266.77;;;254.43;;
65150;SDS011;51918;51.856;0.150;2023-05-07T10:43:39;270.90;;;258.48;;
65150;SDS011;51918;51.856;0.150;2023-05-07T10:54:18;363.95;;;342.77;;
65150;SDS011;51918;51.856;0.150;2023-05-07T11:04:42;282.20;;;269.67;;
65150;SDS011;51918;51.856;0.150;2023-05-07T11:15:12;237.45;;;226.30;;
65150;SDS011;51918;51.856;0.150;2023-05-07T11:20:13;399.77;;;374.40;;
65150;SDS011;51918;51.856;0.150;2023-05-07T11:25:17;295.35;;;279.95;;
65150;SDS011;51918;51.856;0.150;2023-05-07T11:30:19;232.63;;;217.10;;
65150;SDS011;51918;51.856;0.150;2023-05-07T11:35:22;215.38;;;205.20;;
65150;SDS011;51918;51.856;0.150;2023-05-07T11:40:23;240.50;;;226.88;;
65150;SDS011;51918;51.856;0.150;2023-05-07T11:45:25;205.85;;;195.68;;
65150;SDS011;51918;51.856;0.150;2023-05-07T11:50:26;231.73;;;217.18;;
65150;SDS011;51918;51.856;0.150;2023-05-07T11:55:26;192.90;;;182.43;;
65150;SDS011;51918;51.856;0.150;2023-05-07T12:00:29;178.07;;;168.48;;
65150;SDS011;51918;51.856;0.150;2023-05-07T12:05:30;122.88;;;117.22;;
65150;SDS011;51918;51.856;0.150;2023-05-07T12:10:31;199.75;;;189.95;;
65150;SDS011;51918;51.856;0.150;2023-05-07T12:15:33;121.55;;;115.78;;
65150;SDS011;51918;51.856;0.150;2023-05-07T12:20:35;159.02;;;150.77;;
65150;SDS011;51918;51.856;0.150;2023-05-07T12:25:36;95.65;;;91.32;;
65150;SDS011;51918;51.856;0.150;2023-05-07T12:30:39;105.30;;;100.40;;
65150;SDS011;51918;51.856;0.150;2023-05-07T12:35:41;148.13;;;140.55;;
65150;SDS011;51918;51.856;0.150;2023-05-07T12:40:44;157.65;;;149.68;;
65150;SDS011;51918;51.856;0.150;2023-05-07T12:45:48;179.57;;;170.35;;
65150;SDS011;51918;51.856;0.150;2023-05-07T12:50:52;174.25;;;165.02;;
65150;SDS011;51918;51.856;0.150;2023-05-07T12:55:54;183.80;;;175.07;;
65150;SDS011;51918;51.856;0.150;2023-05-07T13:00:58;125.18;;;118.97;;
65150;SDS011;51918;51.856;0.150;2023-05-07T13:06:00;116.20;;;110.53;;
65150;SDS011;51918;51.856;0.150;2023-05-07T13:11:02;150.75;;;144.10;;
65150;SDS011;51918;51.856;0.150;2023-05-07T13:16:05;112.50;;;106.75;;
65150;SDS011;51918;51.856;0.150;2023-05-07T13:21:07;123.07;;;116.97;;
65150;SDS011;51918;51.856;0.150;2023-05-07T13:26:08;105.05;;;99.78;;
65150;SDS011;51918;51.856;0.150;2023-05-07T13:31:11;65.15;;;62.08;;
65150;SDS011;51918;51.856;0.150;2023-05-07T13:36:12;81.85;;;77.88;;
65150;SDS011;51918;51.856;0.150;2023-05-07T13:41:13;155.88;;;147.90;;
65150;SDS011;51918;51.856;0.150;2023-05-07T13:46:16;169.98;;;161.27;;
65150;SDS011;51918;51.856;0.150;2023-05-07T13:51:16;109.20;;;103.55;;
65150;SDS011;51918;51.856;0.150;2023-05-07T13:56:17;127.25;;;121.22;;
65150;SDS011;51918;51.856;0.150;2023-05-07T14:01:19;68.85;;;65.38;;
65150;SDS011;51918;51.856;0.150;2023-05-07T14:06:19;76.63;;;72.95;;
65150;SDS011;51918;51.856;0.150;2023-05-07T14:11:20;154.27;;;145.95;;
65150;SDS011;51918;51.856;0.150;2023-05-07T14:16:22;73.53;;;69.57;;
65150;SDS011;51918;51.856;0.150;2023-05-07T14:21:22;79.00;;;75.22;;
65150;SDS011;51918;51.856;0.150;2023-05-07T14:26:23;138.85;;;131.35;;
65150;SDS011;51918;51.856;0.150;2023-05-07T14:31:25;51.60;;;49.03;;
65150;SDS011;51918;51.856;0.150;2023-05-07T14:36:26;49.47;;;47.33;;
65150;SDS011;51918;51.856;0.150;2023-05-07T14:41:26;132.95;;;125.07;;
65150;SDS011;51918;51.856;0.150;2023-05-07T14:46:28;66.30;;;63.08;;
65150;SDS011;51918;51.856;0.150;2023-05-07T14:51:29;189.85;;;179.50;;
65150;SDS011;51918;51.856;0.150;2023-05-07T14:56:30;122.43;;;116.40;;
65150;SDS011;51918;51.856;0.150;2023-05-07T15:01:32;74.55;;;70.72;;
65150;SDS011;51918;51.856;0.150;2023-05-07T15:06:34;93.20;;;87.97;;
65150;SDS011;51918;51.856;0.150;2023-05-07T15:11:36;106.15;;;100.60;;
65150;SDS011;51918;51.856;0.150;2023-05-07T15:16:38;117.10;;;111.25;;
65150;SDS011;51918;51.856;0.150;2023-05-07T15:21:41;144.27;;;137.18;;
65150;SDS011;51918;51.856;0.150;2023-05-07T15:26:42;146.98;;;139.80;;
65150;SDS011;51918;51.856;0.150;2023-05-07T15:31:44;134.82;;;128.23;;
65150;SDS011;51918;51.856;0.150;2023-05-07T15:36:44;90.78;;;86.45;;
65150;SDS011;51918;51.856;0.150;2023-05-07T15:41:45;109.00;;;104.10;;
65150;SDS011;51918;51.856;0.150;2023-05-07T15:46:47;103.95;;;99.05;;
65150;SDS011;51918;51.856;0.150;2023-05-07T15:51:48;170.30;;;161.70;;
65150;SDS011;51918;51.856;0.150;2023-05-07T15:56:48;116.60;;;110.82;;
65150;SDS011;51918;51.856;0.150;2023-05-07T16:01:50;158.73;;;151.23;;
65150;SDS011;51918;51.856;0.150;2023-05-07T16:06:51;133.80;;;127.60;;
65150;SDS011;51918;51.856;0.150;2023-05-07T16:11:51;147.23;;;140.55;;
65150;SDS011;51918;51.856;0.150;2023-05-07T16:16:55;215.50;;;203.77;;
65150;SDS011;51918;51.856;0.150;2023-05-07T16:21:55;151.20;;;143.05;;
65150;SDS011;51918;51.856;0.150;2023-05-07T16:26:56;181.23;;;171.02;;
65150;SDS011;51918;51.856;0.150;2023-05-07T16:31:58;271.98;;;255.98;;
65150;SDS011;51918;51.856;0.150;2023-05-07T16:36:58;355.77;;;332.52;;
65150;SDS011;51918;51.856;0.150;2023-05-07T16:41:59;195.70;;;186.77;;
65150;SDS011;51918;51.856;0.150;2023-05-07T16:47:01;275.98;;;262.35;;
65150;SDS011;51918;51.856;0.150;2023-05-07T16:52:02;323.25;;;305.23;;
65150;SDS011;51918;51.856;0.150;2023-05-07T16:57:02;218.77;;;207.95;;
65150;SDS011;51918;51.856;0.150;2023-05-07T17:02:05;289.20;;;273.25;;
65150;SDS011;51918;51.856;0.150;2023-05-07T17:07:06;161.40;;;153.70;;
65150;SDS011;51918;51.856;0.150;2023-05-07T17:12:06;207.02;;;196.93;;
65150;SDS011;51918;51.856;0.150;2023-05-07T17:17:08;142.77;;;136.18;;
65150;SDS011;51918;51.856;0.150;2023-05-07T17:22:11;107.55;;;102.65;;
65150;SDS011;51918;51.856;0.150;2023-05-07T17:27:12;96.85;;;91.97;;
65150;SDS011;51918;51.856;0.150;2023-05-07T17:32:14;232.25;;;221.43;;
65150;SDS011;51918;51.856;0.150;2023-05-07T17:37:15;286.50;;;270.40;;
65150;SDS011;51918;51.856;0.150;2023-05-07T17:42:15;184.82;;;175.43;;
65150;SDS011;51918;51.856;0.150;2023-05-07T17:47:17;169.35;;;161.48;;
65150;SDS011;51918;51.856;0.150;2023-05-07T17:52:18;142.98;;;136.50;;
65150;SDS011;51918;51.856;0.150;2023-05-07T17:57:20;228.80;;;218.82;;
65150;SDS011;51918;51.856;0.150;2023-05-07T18:02:22;260.90;;;248.30;;
65150;SDS011;51918;51.856;0.150;2023-05-07T18:07:22;311.75;;;298.13;;
65150;SDS011;51918;51.856;0.150;2023-05-07T18:17:25;293.40;;;278.08;;
65150;SDS011;51918;51.856;0.150;2023-05-07T18:22:25;316.08;;;302.83;;
65150;SDS011;51918;51.856;0.150;2023-05-07T18:32:28;248.80;;;237.85;;
65150;SDS011;51918;51.856;0.150;2023-05-07T18:37:28;272.45;;;260.33;;
65150;SDS011;51918;51.856;0.150;2023-05-07T18:42:29;329.63;;;314.75;;
65150;SDS011;51918;51.856;0.150;2023-05-07T18:47:31;407.50;;;386.83;;
65150;SDS011;51918;51.856;0.150;2023-05-07T18:52:32;316.38;;;301.35;;
65150;SDS011;51918;51.856;0.150;2023-05-07T19:02:34;368.00;;;351.43;;
65150;SDS011;51918;51.856;0.150;2023-05-07T19:07:35;340.42;;;325.33;;
65150;SDS011;51918;51.856;0.150;2023-05-07T19:12:35;295.42;;;281.80;;
65150;SDS011;51918;51.856;0.150;2023-05-07T19:17:38;292.27;;;278.50;;
65150;SDS011;51918;51.856;0.150;2023-05-07T19:22:38;179.95;;;171.88;;
65150;SDS011;51918;51.856;0.150;2023-05-07T19:27:39;190.30;;;182.00;;
65150;SDS011;51918;51.856;0.150;2023-05-07T19:32:41;233.57;;;222.80;;
65150;SDS011;51918;51.856;0.150;2023-05-07T19:37:41;197.23;;;188.55;;
65150;SDS011;51918;51.856;0.150;2023-05-07T19:47:44;253.07;;;241.77;;
65150;SDS011;51918;51.856;0.150;2023-05-07T19:52:46;125.30;;;119.80;;
65150;SDS011;51918;51.856;0.150;2023-05-07T19:57:47;269.35;;;257.42;;
65150;SDS011;51918;51.856;0.150;2023-05-07T20:02:49;287.33;;;274.92;;
65150;SDS011;51918;51.856;0.150;2023-05-07T20:07:50;196.65;;;188.00;;
65150;SDS011;51918;51.856;0.150;2023-05-07T20:12:50;178.18;;;170.20;;
65150;SDS011;51918;51.856;0.150;2023-05-07T20:17:52;135.60;;;129.00;;
65150;SDS011;51918;51.856;0.150;2023-05-07T20:22:53;121.07;;;115.25;;
65150;SDS011;51918;51.856;0.150;2023-05-07T20:27:53;104.53;;;100.03;;
65150;SDS011;51918;51.856;0.150;2023-05-07T20:37:57;115.63;;;110.32;;
65150;SDS011;51918;51.856;0.150;2023-05-07T20:42:57;134.20;;;127.93;;
65150;SDS011;51918;51.856;0.150;2023-05-07T20:47:59;128.57;;;122.57;;
65150;SDS011;51918;51.856;0.150;2023-05-07T20:53:00;181.63;;;172.70;;
65150;SDS011;51918;51.856;0.150;2023-05-07T20:58:01;112.20;;;106.85;;
65150;SDS011;51918;51.856;0.150;2023-05-07T21:03:03;344.50;;;324.85;;
65150;SDS011;51918;51.856;0.150;2023-05-07T21:08:03;341.98;;;322.20;;
65150;SDS011;51918;51.856;0.150;2023-05-07T21:13:04;152.02;;;143.65;;
65150;SDS011;51918;51.856;0.150;2023-05-07T21:18:06;319.67;;;301.52;;
65150;SDS011;51918;51.856;0.150;2023-05-07T21:23:06;294.27;;;277.80;;
65150;SDS011;51918;51.856;0.150;2023-05-07T21:28:07;277.52;;;260.10;;
65150;SDS011;51918;51.856;0.150;2023-05-07T21:33:09;296.80;;;282.55;;
65150;SDS011;51918;51.856;0.150;2023-05-07T21:38:09;464.77;;;441.85;;
65150;SDS011;51918;51.856;0.150;2023-05-07T21:43:10;442.73;;;417.83;;
65150;SDS011;51918;51.856;0.150;2023-05-07T21:48:13;475.05;;;450.00;;
65150;SDS011;51918;51.856;0.150;2023-05-07T21:53:14;634.88;;;593.60;;
65150;SDS011;51918;51.856;0.150;2023-05-07T21:58:14;470.25;;;443.08;;
65150;SDS011;51918;51.856;0.150;2023-05-07T22:03:16;648.80;;;606.75;;
65150;SDS011;51918;51.856;0.150;2023-05-07T22:08:17;450.02;;;423.15;;
65150;SDS011;51918;51.856;0.150;2023-05-07T22:13:18;503.27;;;470.88;;
65150;SDS011;51918;51.856;0.150;2023-05-07T22:18:20;518.97;;;486.40;;
65150;SDS011;51918;51.856;0.150;2023-05-07T22:23:20;571.17;;;531.75;;
65150;SDS011;51918;51.856;0.150;2023-05-07T22:28:21;521.67;;;485.67;;
65150;SDS011;51918;51.856;0.150;2023-05-07T22:33:23;194.77;;;183.27;;
65150;SDS011;51918;51.856;0.150;2023-05-07T22:38:23;355.17;;;336.77;;
65150;SDS011;51918;51.856;0.150;2023-05-07T22:43:24;456.95;;;426.70;;
65150;SDS011;51918;51.856;0.150;2023-05-07T22:48:27;593.60;;;551.50;;
65150;SDS011;51918;51.856;0.150;2023-05-07T22:53:28;532.28;;;493.25;;
65150;SDS011;51918;51.856;0.150;2023-05-07T22:58:29;494.77;;;458.50;;
65150;SDS011;51918;51.856;0.150;2023-05-07T23:03:31;664.08;;;616.15;;
65150;SDS011;51918;51.856;0.150;2023-05-07T23:08:31;609.85;;;568.17;;
65150;SDS011;51918;51.856;0.150;2023-05-07T23:13:32;648.70;;;604.10;;
65150;SDS011;51918;51.856;0.150;2023-05-07T23:18:34;630.60;;;586.38;;
65150;SDS011;51918;51.856;0.150;2023-05-07T23:23:35;594.05;;;552.60;;
65150;SDS011;51918;51.856;0.150;2023-05-07T23:28:35;616.17;;;570.08;;
65150;SDS011;51918;51.856;0.150;2023-05-07T23:33:38;390.70;;;365.92;;
65150;SDS011;51918;51.856;0.150;2023-05-07T23:38:38;437.17;;;410.30;;
65150;SDS011;51918;51.856;0.150;2023-05-07T23:43:39;398.95;;;373.10;;
65150;SDS011;51918;51.856;0.150;2023-05-07T23:48:41;405.63;;;380.58;;
65150;SDS011;51918;51.856;0.150;2023-05-07T23:53:41;491.10;;;457.65;;
65150;SDS011;51918;51.856;0.150;2023-05-07T23:58:42;476.90;;;437.83;;
